sensor_id;sensor_type;location;lat;lon;timestamp;pressure;altitude;pressure_sealevel;temperature;humidity
60719;BME280;46567;51.660;5.824;2023-03-01T00:03:07;103070.0;;;0.5;60.0
60719;BME280;46567;51.660;5.824;2023-03-01T00:08:07;103060.0;;;0.4;60.0
60719;BME280;46567;51.660;5.824;2023-03-01T00:13:07;103070.0;;;0.4;60.0
60719;BME280;46567;51.660;5.824;2023-03-01T00:18:07;103070.0;;;0.4;60.0
60719;BME280;46567;51.660;5.824;2023-03-01T00:23:07;103060.0;;;0.4;60.5
60719;BME280;46567;51.660;5.824;2023-03-01T00:28:07;103060.0;;;0.4;60.5
60719;BME280;46567;51.660;5.824;2023-03-01T00:33:07;103050.0;;;0.4;61.0
60719;BME280;46567;51.660;5.824;2023-03-01T00:38:08;103050.0;;;0.5;61.0
60719;BME280;46567;51.660;5.824;2023-03-01T00:43:07;103060.0;;;0.6;61.0
60719;BME280;46567;51.660;5.824;2023-03-01T00:48:07;103050.0;;;0.6;61.0
60719;BME280;46567;51.660;5.824;2023-03-01T00:53:07;103030.0;;;0.5;61.0
60719;BME280;46567;51.660;5.824;2023-03-01T00:58:07;103030.0;;;0.5;61.0
60719;BME280;46567;51.660;5.824;2023-03-01T01:03:07;103030.0;;;0.5;61.0
60719;BME280;46567;51.660;5.824;2023-03-01T01:08:07;103030.0;;;0.4;61.0
60719;BME280;46567;51.660;5.824;2023-03-01T01:13:07;103030.0;;;0.3;61.0
60719;BME280;46567;51.660;5.824;2023-03-01T01:18:07;103030.0;;;0.2;61.0
60719;BME280;46567;51.660;5.824;2023-03-01T01:23:07;103010.0;;;0.2;61.5
60719;BME280;46567;51.660;5.824;2023-03-01T01:28:07;103000.0;;;0.1;61.5
60719;BME280;46567;51.660;5.824;2023-03-01T01:33:07;103000.0;;;0.1;61.5
60719;BME280;46567;51.660;5.824;2023-03-01T01:38:07;103000.0;;;0.1;61.5
60719;BME280;46567;51.660;5.824;2023-03-01T01:43:08;102980.0;;;0.0;61.5
60719;BME280;46567;51.660;5.824;2023-03-01T01:48:16;102990.0;;;0.0;61.5
60719;BME280;46567;51.660;5.824;2023-03-01T01:53:10;102980.0;;;0.0;61.5
60719;BME280;46567;51.660;5.824;2023-03-01T01:58:09;102980.0;;;0.0;62.0
60719;BME280;46567;51.660;5.824;2023-03-01T02:03:20;102970.0;;;0.0;62.0
60719;BME280;46567;51.660;5.824;2023-03-01T02:08:08;102970.0;;;0.0;62.0
60719;BME280;46567;51.660;5.824;2023-03-01T02:13:07;102980.0;;;0.0;62.0
60719;BME280;46567;51.660;5.824;2023-03-01T02:18:08;102980.0;;;0.0;62.0
60719;BME280;46567;51.660;5.824;2023-03-01T02:23:07;102980.0;;;0.0;62.5
60719;BME280;46567;51.660;5.824;2023-03-01T02:28:18;102980.0;;;0.0;62.5
60719;BME280;46567;51.660;5.824;2023-03-01T02:33:07;102980.0;;;0.0;62.5
60719;BME280;46567;51.660;5.824;2023-03-01T02:38:08;102970.0;;;0.0;62.5
60719;BME280;46567;51.660;5.824;2023-03-01T02:43:10;102970.0;;;0.0;62.5
60719;BME280;46567;51.660;5.824;2023-03-01T02:48:07;102960.0;;;0.0;63.0
60719;BME280;46567;51.660;5.824;2023-03-01T02:53:29;102950.0;;;0.0;63.0
60719;BME280;46567;51.660;5.824;2023-03-01T02:58:08;102960.0;;;0.0;63.0
60719;BME280;46567;51.660;5.824;2023-03-01T03:03:07;102980.0;;;0.0;63.0
60719;BME280;46567;51.660;5.824;2023-03-01T03:08:07;102970.0;;;0.0;63.0
60719;BME280;46567;51.660;5.824;2023-03-01T03:13:09;102960.0;;;0.0;63.5
60719;BME280;46567;51.660;5.824;2023-03-01T03:18:12;102960.0;;;0.0;63.5
60719;BME280;46567;51.660;5.824;2023-03-01T03:23:07;102960.0;;;0.0;63.5
60719;BME280;46567;51.660;5.824;2023-03-01T03:28:07;102960.0;;;0.0;64.0
60719;BME280;46567;51.660;5.824;2023-03-01T03:33:08;102960.0;;;0.0;64.5
60719;BME280;46567;51.660;5.824;2023-03-01T03:38:09;102950.0;;;0.0;64.5
60719;BME280;46567;51.660;5.824;2023-03-01T03:43:09;102950.0;;;0.0;64.5
60719;BME280;46567;51.660;5.824;2023-03-01T03:48:08;102960.0;;;0.0;64.5
60719;BME280;46567;51.660;5.824;2023-03-01T03:53:09;102950.0;;;0.0;64.5
60719;BME280;46567;51.660;5.824;2023-03-01T03:58:09;102940.0;;;0.0;64.5
60719;BME280;46567;51.660;5.824;2023-03-01T04:03:09;102940.0;;;0.0;64.5
60719;BME280;46567;51.660;5.824;2023-03-01T04:08:08;102940.0;;;0.0;64.5
60719;BME280;46567;51.660;5.824;2023-03-01T04:13:11;102930.0;;;0.0;65.0
60719;BME280;46567;51.660;5.824;2023-03-01T04:18:08;102920.0;;;0.0;65.5
60719;BME280;46567;51.660;5.824;2023-03-01T04:23:09;102930.0;;;0.0;65.5
60719;BME280;46567;51.660;5.824;2023-03-01T04:28:08;102910.0;;;0.0;65.5
60719;BME280;46567;51.660;5.824;2023-03-01T04:33:09;102920.0;;;0.0;65.5
60719;BME280;46567;51.660;5.824;2023-03-01T04:38:08;102910.0;;;0.0;65.5
60719;BME280;46567;51.660;5.824;2023-03-01T04:43:08;102900.0;;;0.0;65.5
60719;BME280;46567;51.660;5.824;2023-03-01T04:48:07;102910.0;;;0.0;65.5
60719;BME280;46567;51.660;5.824;2023-03-01T04:53:07;102910.0;;;0.0;65.5
60719;BME280;46567;51.660;5.824;2023-03-01T04:58:07;102900.0;;;0.0;66.0
60719;BME280;46567;51.660;5.824;2023-03-01T05:03:08;102900.0;;;0.0;66.5
60719;BME280;46567;51.660;5.824;2023-03-01T05:08:08;102890.0;;;0.0;66.5
60719;BME280;46567;51.660;5.824;2023-03-01T05:13:07;102890.0;;;0.0;66.5
60719;BME280;46567;51.660;5.824;2023-03-01T05:18:07;102890.0;;;0.0;66.5
60719;BME280;46567;51.660;5.824;2023-03-01T05:23:07;102890.0;;;0.0;66.5
60719;BME280;46567;51.660;5.824;2023-03-01T05:28:11;102870.0;;;0.0;66.5
60719;BME280;46567;51.660;5.824;2023-03-01T05:33:09;102870.0;;;0.0;66.5
60719;BME280;46567;51.660;5.824;2023-03-01T05:38:08;102860.0;;;0.0;66.5
60719;BME280;46567;51.660;5.824;2023-03-01T05:43:07;102860.0;;;0.0;66.5
60719;BME280;46567;51.660;5.824;2023-03-01T05:48:08;102840.0;;;0.0;66.0
60719;BME280;46567;51.660;5.824;2023-03-01T05:53:10;102850.0;;;0.0;66.5
60719;BME280;46567;51.660;5.824;2023-03-01T05:58:10;102870.0;;;0.0;66.5
60719;BME280;46567;51.660;5.824;2023-03-01T06:03:10;102870.0;;;0.0;66.5
60719;BME280;46567;51.660;5.824;2023-03-01T06:08:09;102870.0;;;0.0;66.5
60719;BME280;46567;51.660;5.824;2023-03-01T06:13:07;102870.0;;;0.0;66.5
60719;BME280;46567;51.660;5.824;2023-03-01T06:18:08;102870.0;;;0.0;67.0
60719;BME280;46567;51.660;5.824;2023-03-01T06:23:07;102870.0;;;0.0;66.5
60719;BME280;46567;51.660;5.824;2023-03-01T06:28:07;102870.0;;;0.0;66.5
60719;BME280;46567;51.660;5.824;2023-03-01T06:33:07;102870.0;;;0.0;66.5
60719;BME280;46567;51.660;5.824;2023-03-01T06:38:07;102860.0;;;0.0;66.5
60719;BME280;46567;51.660;5.824;2023-03-01T06:43:07;102870.0;;;0.0;66.5
60719;BME280;46567;51.660;5.824;2023-03-01T06:48:07;102870.0;;;0.0;66.5
60719;BME280;46567;51.660;5.824;2023-03-01T06:53:07;102860.0;;;0.0;66.5
60719;BME280;46567;51.660;5.824;2023-03-01T06:58:08;102860.0;;;0.0;66.5
60719;BME280;46567;51.660;5.824;2023-03-01T07:03:08;102850.0;;;0.0;66.5
60719;BME280;46567;51.660;5.824;2023-03-01T07:08:07;102850.0;;;0.0;67.5
60719;BME280;46567;51.660;5.824;2023-03-01T07:13:07;102850.0;;;0.2;67.5
60719;BME280;46567;51.660;5.824;2023-03-01T07:18:07;102850.0;;;0.4;67.0
60719;BME280;46567;51.660;5.824;2023-03-01T07:23:07;102860.0;;;0.7;66.5
60719;BME280;46567;51.660;5.824;2023-03-01T07:28:07;102860.0;;;0.9;66.0
60719;BME280;46567;51.660;5.824;2023-03-01T07:33:07;102870.0;;;0.9;65.5
60719;BME280;46567;51.660;5.824;2023-03-01T07:38:07;102870.0;;;0.8;66.0
60719;BME280;46567;51.660;5.824;2023-03-01T07:43:07;102870.0;;;0.8;66.0
60719;BME280;46567;51.660;5.824;2023-03-01T07:48:07;102860.0;;;0.8;66.5
60719;BME280;46567;51.660;5.824;2023-03-01T07:53:08;102860.0;;;0.8;67.0
60719;BME280;46567;51.660;5.824;2023-03-01T07:58:07;102870.0;;;0.9;67.0
60719;BME280;46567;51.660;5.824;2023-03-01T08:03:07;102870.0;;;0.9;67.5
60719;BME280;46567;51.660;5.824;2023-03-01T08:08:07;102860.0;;;0.9;67.5
60719;BME280;46567;51.660;5.824;2023-03-01T08:13:07;102870.0;;;1.0;68.5
60719;BME280;46567;51.660;5.824;2023-03-01T08:18:07;102860.0;;;1.1;68.5
60719;BME280;46567;51.660;5.824;2023-03-01T08:23:07;102860.0;;;1.3;68.5
60719;BME280;46567;51.660;5.824;2023-03-01T08:28:07;102860.0;;;1.5;68.5
60719;BME280;46567;51.660;5.824;2023-03-01T08:33:07;102850.0;;;1.7;68.5
60719;BME280;46567;51.660;5.824;2023-03-01T08:38:07;102850.0;;;1.9;68.0
60719;BME280;46567;51.660;5.824;2023-03-01T08:43:07;102840.0;;;2.1;68.5
60719;BME280;46567;51.660;5.824;2023-03-01T08:48:07;102830.0;;;2.3;68.0
60719;BME280;46567;51.660;5.824;2023-03-01T08:53:07;102830.0;;;2.5;67.5
60719;BME280;46567;51.660;5.824;2023-03-01T08:58:07;102820.0;;;2.8;67.0
60719;BME280;46567;51.660;5.824;2023-03-01T09:03:07;102830.0;;;3.0;66.5
60719;BME280;46567;51.660;5.824;2023-03-01T09:08:07;102820.0;;;3.2;66.0
60719;BME280;46567;51.660;5.824;2023-03-01T09:13:07;102820.0;;;3.5;65.0
60719;BME280;46567;51.660;5.824;2023-03-01T09:18:07;102820.0;;;3.7;64.5
60719;BME280;46567;51.660;5.824;2023-03-01T09:23:07;102810.0;;;3.8;64.5
60719;BME280;46567;51.660;5.824;2023-03-01T09:28:07;102800.0;;;4.0;64.0
60719;BME280;46567;51.660;5.824;2023-03-01T09:33:07;102810.0;;;4.2;62.5
60719;BME280;46567;51.660;5.824;2023-03-01T09:38:07;102800.0;;;4.4;62.5
60719;BME280;46567;51.660;5.824;2023-03-01T09:43:29;102800.0;;;4.7;62.0
60719;BME280;46567;51.660;5.824;2023-03-01T09:48:14;102780.0;;;4.7;59.0
60719;BME280;46567;51.660;5.824;2023-03-01T09:53:17;102780.0;;;4.8;58.5
60719;BME280;46567;51.660;5.824;2023-03-01T09:58:25;102770.0;;;4.8;58.0
60719;BME280;46567;51.660;5.824;2023-03-01T10:03:14;102770.0;;;5.0;57.5
60719;BME280;46567;51.660;5.824;2023-03-01T10:08:41;102760.0;;;5.1;57.5
60719;BME280;46567;51.660;5.824;2023-03-01T10:13:13;102750.0;;;5.3;57.5
60719;BME280;46567;51.660;5.824;2023-03-01T10:18:22;102750.0;;;5.5;56.5
60719;BME280;46567;51.660;5.824;2023-03-01T10:23:08;102730.0;;;5.5;56.0
60719;BME280;46567;51.660;5.824;2023-03-01T10:28:25;102720.0;;;5.6;56.0
60719;BME280;46567;51.660;5.824;2023-03-01T10:33:19;102720.0;;;5.7;56.0
60719;BME280;46567;51.660;5.824;2023-03-01T10:38:14;102730.0;;;5.9;55.5
60719;BME280;46567;51.660;5.824;2023-03-01T10:43:11;102720.0;;;6.0;54.5
60719;BME280;46567;51.660;5.824;2023-03-01T10:48:11;102720.0;;;6.1;54.0
60719;BME280;46567;51.660;5.824;2023-03-01T10:53:20;102710.0;;;6.1;53.5
60719;BME280;46567;51.660;5.824;2023-03-01T10:58:20;102710.0;;;6.1;53.0
60719;BME280;46567;51.660;5.824;2023-03-01T11:03:11;102720.0;;;6.2;53.0
60719;BME280;46567;51.660;5.824;2023-03-01T11:08:07;102710.0;;;6.4;53.5
60719;BME280;46567;51.660;5.824;2023-03-01T11:13:13;102710.0;;;6.5;52.5
60719;BME280;46567;51.660;5.824;2023-03-01T11:18:18;102710.0;;;6.7;53.0
60719;BME280;46567;51.660;5.824;2023-03-01T11:23:10;102700.0;;;6.8;52.5
60719;BME280;46567;51.660;5.824;2023-03-01T11:28:12;102690.0;;;6.9;51.5
60719;BME280;46567;51.660;5.824;2023-03-01T11:33:35;102690.0;;;6.8;51.0
60719;BME280;46567;51.660;5.824;2023-03-01T11:38:22;102690.0;;;6.9;52.0
60719;BME280;46567;51.660;5.824;2023-03-01T11:43:15;102700.0;;;6.9;50.5
60719;BME280;46567;51.660;5.824;2023-03-01T11:49:00;102700.0;;;7.0;51.5
60719;BME280;46567;51.660;5.824;2023-03-01T11:53:57;102680.0;;;7.1;50.5
60719;BME280;46567;51.660;5.824;2023-03-01T11:59:57;102690.0;;;7.3;51.0
60719;BME280;46567;51.660;5.824;2023-03-01T12:05:48;102670.0;;;7.4;50.5
60719;BME280;46567;51.660;5.824;2023-03-01T12:10:27;102670.0;;;7.4;50.5
60719;BME280;46567;51.660;5.824;2023-03-01T12:16:27;102670.0;;;7.4;49.5
60719;BME280;46567;51.660;5.824;2023-03-01T12:22:30;102670.0;;;7.6;50.5
60719;BME280;46567;51.660;5.824;2023-03-01T12:28:04;102660.0;;;7.8;50.0
60719;BME280;46567;51.660;5.824;2023-03-01T12:33:45;102650.0;;;7.9;48.0
60719;BME280;46567;51.660;5.824;2023-03-01T12:38:48;102650.0;;;7.8;48.5
60719;BME280;46567;51.660;5.824;2023-03-01T12:45:18;102630.0;;;7.8;48.5
60719;BME280;46567;51.660;5.824;2023-03-01T12:50:02;102630.0;;;7.9;48.5
60719;BME280;46567;51.660;5.824;2023-03-01T12:52:58;102620.0;;;8.0;47.0
60719;BME280;46567;51.660;5.824;2023-03-01T12:53:17;102620.0;;;8.1;48.0
60719;BME280;46567;51.660;5.824;2023-03-01T12:58:20;102610.0;;;8.4;48.0
60719;BME280;46567;51.660;5.824;2023-03-01T13:03:26;102600.0;;;8.4;47.0
60719;BME280;46567;51.660;5.824;2023-03-01T13:08:44;102600.0;;;8.5;47.5
60719;BME280;46567;51.660;5.824;2023-03-01T13:13:24;102590.0;;;8.5;47.0
60719;BME280;46567;51.660;5.824;2023-03-01T13:18:27;102590.0;;;8.6;46.5
60719;BME280;46567;51.660;5.824;2023-03-01T13:23:12;102580.0;;;8.6;46.5
60719;BME280;46567;51.660;5.824;2023-03-01T13:28:41;102570.0;;;8.8;46.5
60719;BME280;46567;51.660;5.824;2023-03-01T13:33:42;102560.0;;;8.9;45.5
60719;BME280;46567;51.660;5.824;2023-03-01T13:38:48;102540.0;;;8.8;45.5
60719;BME280;46567;51.660;5.824;2023-03-01T13:43:33;102540.0;;;8.8;45.5
60719;BME280;46567;51.660;5.824;2023-03-01T13:48:09;102530.0;;;8.7;45.5
60719;BME280;46567;51.660;5.824;2023-03-01T13:53:14;102520.0;;;8.8;45.5
60719;BME280;46567;51.660;5.824;2023-03-01T13:58:16;102510.0;;;8.9;45.0
60719;BME280;46567;51.660;5.824;2023-03-01T14:03:14;102510.0;;;9.0;45.0
60719;BME280;46567;51.660;5.824;2023-03-01T14:08:19;102490.0;;;9.0;45.0
60719;BME280;46567;51.660;5.824;2023-03-01T14:13:54;102480.0;;;9.1;44.0
60719;BME280;46567;51.660;5.824;2023-03-01T14:18:20;102500.0;;;9.0;44.5
60719;BME280;46567;51.660;5.824;2023-03-01T14:23:15;102480.0;;;9.1;44.5
60719;BME280;46567;51.660;5.824;2023-03-01T14:28:14;102480.0;;;9.0;44.0
60719;BME280;46567;51.660;5.824;2023-03-01T14:33:25;102480.0;;;9.0;44.5
60719;BME280;46567;51.660;5.824;2023-03-01T14:38:20;102470.0;;;9.1;44.5
60719;BME280;46567;51.660;5.824;2023-03-01T14:43:21;102460.0;;;9.3;43.5
60719;BME280;46567;51.660;5.824;2023-03-01T14:48:07;102460.0;;;9.1;43.0
60719;BME280;46567;51.660;5.824;2023-03-01T14:53:16;102440.0;;;8.9;44.0
60719;BME280;46567;51.660;5.824;2023-03-01T14:58:12;102450.0;;;9.0;44.0
60719;BME280;46567;51.660;5.824;2023-03-01T15:03:13;102430.0;;;9.0;44.5
60719;BME280;46567;51.660;5.824;2023-03-01T15:08:18;102430.0;;;9.1;43.5
60719;BME280;46567;51.660;5.824;2023-03-01T15:13:12;102440.0;;;9.0;43.0
60719;BME280;46567;51.660;5.824;2023-03-01T15:18:14;102430.0;;;8.8;43.5
60719;BME280;46567;51.660;5.824;2023-03-01T15:23:19;102440.0;;;8.9;44.0
60719;BME280;46567;51.660;5.824;2023-03-01T15:28:19;102430.0;;;8.9;44.5
60719;BME280;46567;51.660;5.824;2023-03-01T15:33:27;102430.0;;;9.0;44.0
60719;BME280;46567;51.660;5.824;2023-03-01T15:38:24;102430.0;;;8.9;43.5
60719;BME280;46567;51.660;5.824;2023-03-01T15:43:36;102420.0;;;8.8;43.5
60719;BME280;46567;51.660;5.824;2023-03-01T15:48:19;102430.0;;;8.8;43.5
60719;BME280;46567;51.660;5.824;2023-03-01T15:53:11;102430.0;;;8.7;44.0
60719;BME280;46567;51.660;5.824;2023-03-01T15:58:13;102420.0;;;8.7;44.0
60719;BME280;46567;51.660;5.824;2023-03-01T16:03:08;102420.0;;;8.5;44.5
60719;BME280;46567;51.660;5.824;2023-03-01T16:08:07;102410.0;;;8.3;44.5
60719;BME280;46567;51.660;5.824;2023-03-01T16:13:07;102410.0;;;8.1;45.0
60719;BME280;46567;51.660;5.824;2023-03-01T16:18:08;102410.0;;;8.0;45.5
60719;BME280;46567;51.660;5.824;2023-03-01T16:23:11;102410.0;;;7.9;45.0
60719;BME280;46567;51.660;5.824;2023-03-01T16:28:07;102400.0;;;7.7;44.5
60719;BME280;46567;51.660;5.824;2023-03-01T16:33:08;102400.0;;;7.5;44.0
60719;BME280;46567;51.660;5.824;2023-03-01T16:38:07;102410.0;;;7.3;45.0
60719;BME280;46567;51.660;5.824;2023-03-01T16:43:07;102410.0;;;7.2;46.0
60719;BME280;46567;51.660;5.824;2023-03-01T16:48:07;102400.0;;;7.1;46.5
60719;BME280;46567;51.660;5.824;2023-03-01T16:53:07;102400.0;;;7.0;46.5
60719;BME280;46567;51.660;5.824;2023-03-01T16:58:07;102400.0;;;6.9;47.0
60719;BME280;46567;51.660;5.824;2023-03-01T17:03:07;102400.0;;;6.8;47.5
60719;BME280;46567;51.660;5.824;2023-03-01T17:08:07;102400.0;;;6.7;47.5
60719;BME280;46567;51.660;5.824;2023-03-01T17:13:08;102400.0;;;6.7;47.5
60719;BME280;46567;51.660;5.824;2023-03-01T17:18:08;102400.0;;;6.6;48.0
60719;BME280;46567;51.660;5.824;2023-03-01T17:23:07;102410.0;;;6.5;48.5
60719;BME280;46567;51.660;5.824;2023-03-01T17:28:07;102410.0;;;6.3;48.5
60719;BME280;46567;51.660;5.824;2023-03-01T17:33:08;102420.0;;;6.2;49.0
60719;BME280;46567;51.660;5.824;2023-03-01T17:38:07;102420.0;;;6.1;49.0
60719;BME280;46567;51.660;5.824;2023-03-01T17:43:08;102430.0;;;6.0;49.0
60719;BME280;46567;51.660;5.824;2023-03-01T17:48:07;102430.0;;;5.8;49.5
60719;BME280;46567;51.660;5.824;2023-03-01T17:53:08;102430.0;;;5.8;49.5
60719;BME280;46567;51.660;5.824;2023-03-01T17:58:09;102430.0;;;5.7;49.5
60719;BME280;46567;51.660;5.824;2023-03-01T18:03:07;102440.0;;;5.6;49.5
60719;BME280;46567;51.660;5.824;2023-03-01T18:08:07;102440.0;;;5.4;49.5
60719;BME280;46567;51.660;5.824;2023-03-01T18:13:08;102430.0;;;5.3;50.0
60719;BME280;46567;51.660;5.824;2023-03-01T18:18:07;102440.0;;;5.2;50.0
60719;BME280;46567;51.660;5.824;2023-03-01T18:23:07;102440.0;;;5.2;50.5
60719;BME280;46567;51.660;5.824;2023-03-01T18:28:07;102440.0;;;5.1;50.5
60719;BME280;46567;51.660;5.824;2023-03-01T18:33:07;102430.0;;;5.0;51.0
60719;BME280;46567;51.660;5.824;2023-03-01T18:38:07;102430.0;;;4.9;51.0
60719;BME280;46567;51.660;5.824;2023-03-01T18:43:07;102430.0;;;4.7;51.5
60719;BME280;46567;51.660;5.824;2023-03-01T18:48:07;102420.0;;;4.6;52.0
60719;BME280;46567;51.660;5.824;2023-03-01T18:53:08;102420.0;;;4.6;52.0
60719;BME280;46567;51.660;5.824;2023-03-01T18:58:09;102430.0;;;4.6;52.0
60719;BME280;46567;51.660;5.824;2023-03-01T19:03:08;102410.0;;;4.6;52.5
60719;BME280;46567;51.660;5.824;2023-03-01T19:08:07;102410.0;;;4.5;52.5
60719;BME280;46567;51.660;5.824;2023-03-01T19:13:07;102410.0;;;4.4;53.0
60719;BME280;46567;51.660;5.824;2023-03-01T19:18:07;102420.0;;;4.4;53.0
60719;BME280;46567;51.660;5.824;2023-03-01T19:23:07;102420.0;;;4.3;53.5
60719;BME280;46567;51.660;5.824;2023-03-01T19:28:07;102420.0;;;4.2;53.5
60719;BME280;46567;51.660;5.824;2023-03-01T19:33:07;102430.0;;;4.0;54.0
60719;BME280;46567;51.660;5.824;2023-03-01T19:38:07;102430.0;;;3.9;54.5
60719;BME280;46567;51.660;5.824;2023-03-01T19:43:07;102440.0;;;3.8;54.5
60719;BME280;46567;51.660;5.824;2023-03-01T19:48:07;102430.0;;;3.7;55.0
60719;BME280;46567;51.660;5.824;2023-03-01T19:53:07;102440.0;;;3.7;55.0
60719;BME280;46567;51.660;5.824;2023-03-01T19:58:08;102430.0;;;3.7;55.0
60719;BME280;46567;51.660;5.824;2023-03-01T20:03:07;102430.0;;;3.7;55.0
60719;BME280;46567;51.660;5.824;2023-03-01T20:08:07;102430.0;;;3.7;55.0
60719;BME280;46567;51.660;5.824;2023-03-01T20:13:07;102420.0;;;3.7;55.0
60719;BME280;46567;51.660;5.824;2023-03-01T20:18:08;102420.0;;;3.7;55.5
60719;BME280;46567;51.660;5.824;2023-03-01T20:23:07;102420.0;;;3.6;55.5
60719;BME280;46567;51.660;5.824;2023-03-01T20:28:07;102420.0;;;3.6;56.0
60719;BME280;46567;51.660;5.824;2023-03-01T20:33:08;102430.0;;;3.6;56.0
60719;BME280;46567;51.660;5.824;2023-03-01T20:38:08;102420.0;;;3.5;56.5
60719;BME280;46567;51.660;5.824;2023-03-01T20:43:07;102420.0;;;3.4;57.0
60719;BME280;46567;51.660;5.824;2023-03-01T20:48:07;102430.0;;;3.3;57.0
60719;BME280;46567;51.660;5.824;2023-03-01T20:53:07;102430.0;;;3.2;57.5
60719;BME280;46567;51.660;5.824;2023-03-01T20:58:07;102430.0;;;3.1;58.0
60719;BME280;46567;51.660;5.824;2023-03-01T21:03:07;102420.0;;;3.0;58.5
60719;BME280;46567;51.660;5.824;2023-03-01T21:08:07;102410.0;;;3.0;58.5
60719;BME280;46567;51.660;5.824;2023-03-01T21:13:07;102420.0;;;3.0;58.5
60719;BME280;46567;51.660;5.824;2023-03-01T21:18:07;102420.0;;;2.9;58.5
60719;BME280;46567;51.660;5.824;2023-03-01T21:23:07;102410.0;;;2.9;59.0
60719;BME280;46567;51.660;5.824;2023-03-01T21:28:07;102410.0;;;2.9;59.0
60719;BME280;46567;51.660;5.824;2023-03-01T21:33:07;102410.0;;;2.9;58.5
60719;BME280;46567;51.660;5.824;2023-03-01T21:38:07;102400.0;;;2.9;59.0
60719;BME280;46567;51.660;5.824;2023-03-01T21:43:07;102400.0;;;2.9;58.5
60719;BME280;46567;51.660;5.824;2023-03-01T21:48:08;102400.0;;;2.9;58.5
60719;BME280;46567;51.660;5.824;2023-03-01T21:53:07;102400.0;;;2.9;58.5
60719;BME280;46567;51.660;5.824;2023-03-01T21:58:07;102400.0;;;2.9;58.5
60719;BME280;46567;51.660;5.824;2023-03-01T22:03:07;102410.0;;;2.9;58.5
60719;BME280;46567;51.660;5.824;2023-03-01T22:08:08;102400.0;;;2.7;59.0
60719;BME280;46567;51.660;5.824;2023-03-01T22:13:07;102400.0;;;2.7;59.5
60719;BME280;46567;51.660;5.824;2023-03-01T22:18:09;102400.0;;;2.7;59.5
60719;BME280;46567;51.660;5.824;2023-03-01T22:23:07;102400.0;;;2.7;59.5
60719;BME280;46567;51.660;5.824;2023-03-01T22:28:08;102400.0;;;2.7;59.5
60719;BME280;46567;51.660;5.824;2023-03-01T22:33:07;102410.0;;;2.7;59.0
60719;BME280;46567;51.660;5.824;2023-03-01T22:38:08;102410.0;;;2.7;59.0
60719;BME280;46567;51.660;5.824;2023-03-01T22:43:07;102410.0;;;2.6;59.5
60719;BME280;46567;51.660;5.824;2023-03-01T22:48:07;102420.0;;;2.6;59.0
60719;BME280;46567;51.660;5.824;2023-03-01T22:53:07;102420.0;;;2.6;59.5
60719;BME280;46567;51.660;5.824;2023-03-01T22:58:08;102420.0;;;2.5;59.0
60719;BME280;46567;51.660;5.824;2023-03-01T23:03:07;102410.0;;;2.5;59.5
60719;BME280;46567;51.660;5.824;2023-03-01T23:08:07;102420.0;;;2.4;59.5
60719;BME280;46567;51.660;5.824;2023-03-01T23:13:08;102410.0;;;2.2;60.0
60719;BME280;46567;51.660;5.824;2023-03-01T23:18:08;102410.0;;;2.2;60.0
60719;BME280;46567;51.660;5.824;2023-03-01T23:23:07;102410.0;;;2.1;60.5
60719;BME280;46567;51.660;5.824;2023-03-01T23:28:07;102410.0;;;2.0;60.5
60719;BME280;46567;51.660;5.824;2023-03-01T23:33:08;102410.0;;;2.0;60.5
60719;BME280;46567;51.660;5.824;2023-03-01T23:38:08;102400.0;;;1.9;61.5
60719;BME280;46567;51.660;5.824;2023-03-01T23:43:08;102400.0;;;1.9;61.5
60719;BME280;46567;51.660;5.824;2023-03-01T23:48:07;102400.0;;;1.9;61.5
60719;BME280;46567;51.660;5.824;2023-03-01T23:53:09;102400.0;;;1.9;62.0
60719;BME280;46567;51.660;5.824;2023-03-01T23:58:07;102390.0;;;1.8;62.5
